createdAt,value
2022-09-17T00:01:23.196Z,69.47
2022-09-17T00:04:04.487Z,69.89
2022-09-17T00:06:35.514Z,70.71
2022-09-17T00:09:07.690Z,70.13
2022-09-17T00:11:38.555Z,70.39
2022-09-17T00:14:09.172Z,70.13
2022-09-17T00:16:43.507Z,70.22
2022-09-17T00:19:22.794Z,70.69
2022-09-17T00:21:49.887Z,71.47
2022-09-17T00:24:18.252Z,70.81
2022-09-17T00:26:45.079Z,71.48
2022-09-17T00:29:12.071Z,71.59
2022-09-17T00:31:39.485Z,71.71
2022-09-17T00:34:07.415Z,71.74
2022-09-17T00:36:39.403Z,71.84
2022-09-17T00:39:08.956Z,71.91
2022-09-17T00:41:37.928Z,71.78
2022-09-17T00:44:40.134Z,71.57
2022-09-17T00:47:28.988Z,71.13
2022-09-17T00:50:17.345Z,71.40
2022-09-17T00:52:55.344Z,71.57
2022-09-17T00:55:28.687Z,71.17
2022-09-17T00:58:01.399Z,71.59
2022-09-17T01:00:31.954Z,71.56
2022-09-17T01:02:59.216Z,71.68
2022-09-17T01:05:42.244Z,72.32
2022-09-17T01:08:21.360Z,72.75
2022-09-17T01:11:29.687Z,72.35
2022-09-17T01:14:19.247Z,72.72
2022-09-17T01:17:15.549Z,72.64
2022-09-17T01:20:00.553Z,72.70
2022-09-17T01:22:42.788Z,71.97
2022-09-17T01:25:24.663Z,71.92
2022-09-17T01:28:22.539Z,71.53
2022-09-17T01:30:51.986Z,72.67
2022-09-17T01:33:52.592Z,72.41
2022-09-17T01:36:52.538Z,72.17
2022-09-17T01:40:00.491Z,71.73
2022-09-17T01:42:37.776Z,72.46
2022-09-17T01:45:49.642Z,71.88
2022-09-17T01:48:25.618Z,72.05
2022-09-17T01:50:58.843Z,71.66
2022-09-17T01:53:45.898Z,72.10
2022-09-17T01:56:19.923Z,72.25
2022-09-17T01:58:58.367Z,72.10
2022-09-17T02:01:31.186Z,71.63
2022-09-17T02:04:14.691Z,72.22
2022-09-17T02:06:51.627Z,71.76
2022-09-17T02:09:26.535Z,72.16
2022-09-17T02:11:59.958Z,71.59
2022-09-17T02:14:42.449Z,71.89
2022-09-17T02:17:22.498Z,71.45
2022-09-17T02:19:49.211Z,71.60
2022-09-17T02:22:32.058Z,72.23
2022-09-17T02:25:17.831Z,71.46
2022-09-17T02:28:23.329Z,72.54
2022-09-17T02:30:50.449Z,72.40
2022-09-17T02:33:20.333Z,72.58
2022-09-17T02:35:47.263Z,72.46
2022-09-17T02:38:13.891Z,72.11
2022-09-17T02:40:54.638Z,71.99
2022-09-17T02:43:37.970Z,72.23
2022-09-17T02:46:10.429Z,72.08
2022-09-17T02:49:46.209Z,71.49
2022-09-17T02:52:44.499Z,72.07
2022-09-17T02:55:35.546Z,71.60
2022-09-17T02:58:05.022Z,71.72
2022-09-17T03:00:32.190Z,71.44
2022-09-17T03:03:13.626Z,71.16
2022-09-17T03:05:43.729Z,71.96
2022-09-17T03:08:14.347Z,72.33
2022-09-17T03:10:41.199Z,72.53
2022-09-17T03:13:07.896Z,72.43
2022-09-17T03:15:34.361Z,72.60
2022-09-17T03:18:01.783Z,72.19
2022-09-17T03:20:28.270Z,72.68
2022-09-17T03:22:54.712Z,72.73
2022-09-17T03:25:21.158Z,72.66
2022-09-17T03:27:48.218Z,72.37
2022-09-17T03:30:14.739Z,72.23
2022-09-17T03:32:41.182Z,71.93
2022-09-17T03:35:08.120Z,72.21
2022-09-17T03:37:34.551Z,71.97
2022-09-17T03:40:01.219Z,72.27
2022-09-17T03:42:27.771Z,71.95
2022-09-17T03:44:54.194Z,72.00
2022-09-17T03:47:20.628Z,71.68
2022-09-17T03:49:47.113Z,72.15
2022-09-17T03:52:13.852Z,72.15
2022-09-17T03:54:40.287Z,72.21
2022-09-17T03:57:06.703Z,72.42
2022-09-17T03:59:33.168Z,72.61
2022-09-17T04:01:59.742Z,72.18
2022-09-17T04:04:26.293Z,72.20
2022-09-17T04:06:52.786Z,72.19
2022-09-17T04:09:19.263Z,72.05
2022-09-17T04:11:45.786Z,72.19
2022-09-17T04:14:12.231Z,72.56
2022-09-17T04:16:38.690Z,72.05
2022-09-17T04:19:05.243Z,72.47
2022-09-17T04:21:31.714Z,72.66
2022-09-17T04:23:58.259Z,72.32
2022-09-17T04:26:24.707Z,72.45
2022-09-17T04:28:51.160Z,72.38
2022-09-17T04:31:17.694Z,72.41
2022-09-17T04:33:44.183Z,72.36
2022-09-17T04:36:10.599Z,72.58
2022-09-17T04:38:37.078Z,71.76
2022-09-17T04:41:07.193Z,71.71
2022-09-17T04:43:34.113Z,72.05
2022-09-17T04:46:00.934Z,71.56
2022-09-17T04:48:27.371Z,71.80
2022-09-17T04:50:53.860Z,71.63
2022-09-17T04:53:20.290Z,71.66
2022-09-17T04:55:46.802Z,71.67
2022-09-17T04:58:13.487Z,71.71
2022-09-17T05:00:41.715Z,71.94
2022-09-17T05:03:08.571Z,71.92
2022-09-17T05:05:35.130Z,71.50
2022-09-17T05:08:01.940Z,72.02
2022-09-17T05:10:28.511Z,72.27
2022-09-17T05:12:56.775Z,71.79
2022-09-17T05:15:25.810Z,71.30
2022-09-17T05:17:52.559Z,71.64
2022-09-17T05:20:20.146Z,71.83
2022-09-17T05:22:52.018Z,71.64
2022-09-17T05:25:24.822Z,71.40
2022-09-17T05:27:53.355Z,71.22
2022-09-17T05:30:20.659Z,71.19
2022-09-17T05:32:47.305Z,70.93
2022-09-17T05:35:14.252Z,71.25
2022-09-17T05:37:40.980Z,71.16
2022-09-17T05:40:09.145Z,71.27
2022-09-17T05:42:35.928Z,71.30
2022-09-17T05:45:02.591Z,71.29
2022-09-17T05:47:29.761Z,71.01
2022-09-17T05:49:56.326Z,71.51
2022-09-17T05:52:26.184Z,71.23
2022-09-17T05:54:52.638Z,70.63
2022-09-17T05:57:20.364Z,71.14
2022-09-17T05:59:46.835Z,70.81
2022-09-17T06:02:14.077Z,70.42
2022-09-17T06:04:40.895Z,71.10
2022-09-17T06:07:09.021Z,71.09
2022-09-17T06:09:37.562Z,70.75
2022-09-17T06:12:07.166Z,69.98
2022-09-17T06:14:33.588Z,70.28
2022-09-17T06:17:00.288Z,70.63
2022-09-17T06:19:27.815Z,70.46
2022-09-17T06:21:54.751Z,70.12
2022-09-17T06:24:21.238Z,70.69
2022-09-17T06:26:47.675Z,70.17
2022-09-17T06:29:15.128Z,70.22
2022-09-17T06:31:44.737Z,69.87
2022-09-17T06:34:12.151Z,69.27
2022-09-17T06:36:38.825Z,69.47
2022-09-17T06:39:05.667Z,69.36
2022-09-17T06:41:32.986Z,69.25
2022-09-17T06:43:59.557Z,69.79
2022-09-17T06:46:26.571Z,69.71
2022-09-17T06:48:53.035Z,69.68
2022-09-17T06:51:19.595Z,69.54
2022-09-17T06:53:46.215Z,68.84
2022-09-17T06:56:12.859Z,69.34
2022-09-17T06:58:41.825Z,69.04
2022-09-17T07:01:11.331Z,68.53
2022-09-17T07:03:38.423Z,68.66
2022-09-17T07:06:12.362Z,67.95
2022-09-17T07:08:39.511Z,68.32
2022-09-17T07:11:06.593Z,68.65
2022-09-17T07:13:33.033Z,68.76
2022-09-17T07:16:02.295Z,67.73
2022-09-17T07:18:29.250Z,68.16
2022-09-17T07:20:58.530Z,68.26
2022-09-17T07:23:28.666Z,67.89
2022-09-17T07:25:59.603Z,68.30
2022-09-17T07:28:28.679Z,68.09
2022-09-17T07:30:56.296Z,68.00
2022-09-17T07:33:26.645Z,68.06
2022-09-17T07:35:58.979Z,68.38
2022-09-17T07:38:27.346Z,67.71
2022-09-17T07:41:03.658Z,67.19
2022-09-17T07:43:33.715Z,66.90
2022-09-17T07:46:03.792Z,67.08
2022-09-17T07:48:31.107Z,67.20
2022-09-17T07:50:58.314Z,66.74
2022-09-17T07:53:25.705Z,66.46
2022-09-17T07:55:58.466Z,66.72
2022-09-17T07:58:34.109Z,65.79
2022-09-17T08:01:09.182Z,66.45
2022-09-17T08:03:38.400Z,65.85
2022-09-17T08:06:14.580Z,65.24
2022-09-17T08:08:42.329Z,65.57
2022-09-17T08:11:23.696Z,65.73
2022-09-17T08:13:59.737Z,66.57
2022-09-17T08:16:26.475Z,66.49
2022-09-17T08:18:57.966Z,66.07
2022-09-17T08:21:24.914Z,66.37
2022-09-17T08:23:51.473Z,65.88
2022-09-17T08:26:22.656Z,66.25
2022-09-17T08:28:54.905Z,66.74
2022-09-17T08:31:23.926Z,66.93
2022-09-17T08:33:50.880Z,67.17
2022-09-17T08:36:21.043Z,67.13
2022-09-17T08:38:48.373Z,67.14
2022-09-17T08:41:33.579Z,67.54
2022-09-17T08:44:33.125Z,68.14
2022-09-17T08:47:13.813Z,68.19
2022-09-17T08:49:51.978Z,67.29
2022-09-17T08:52:40.100Z,67.50
2022-09-17T08:55:11.161Z,67.32
2022-09-17T08:57:47.627Z,66.74
2022-09-17T09:00:33.375Z,66.59
2022-09-17T09:03:30.655Z,66.18
2022-09-17T09:05:58.373Z,65.82
2022-09-17T09:08:56.885Z,66.19
2022-09-17T09:11:27.653Z,65.37
2022-09-17T09:14:10.656Z,64.69
2022-09-17T09:16:45.030Z,64.71
2022-09-17T09:19:29.080Z,64.09
2022-09-17T09:22:35.770Z,63.81
2022-09-17T09:25:36.906Z,64.48
2022-09-17T09:28:44.827Z,64.89
2022-09-17T09:31:38.176Z,65.34
2022-09-17T09:34:05.616Z,65.40
2022-09-17T09:36:33.693Z,64.97
2022-09-17T09:39:06.650Z,64.96
2022-09-17T09:41:54.128Z,63.14
2022-09-17T09:44:20.602Z,62.98
2022-09-17T09:47:07.889Z,62.35
2022-09-17T09:50:05.506Z,60.31
2022-09-17T09:52:50.751Z,61.15
2022-09-17T09:56:01.024Z,60.67
2022-09-17T09:58:38.856Z,61.47
2022-09-17T10:01:22.783Z,61.20
2022-09-17T10:03:53.922Z,60.26
2022-09-17T10:06:21.117Z,60.17
2022-09-17T10:08:50.860Z,59.10
2022-09-17T10:11:28.519Z,58.59
2022-09-17T10:14:25.383Z,58.10
2022-09-17T10:17:20.834Z,58.26
2022-09-17T10:20:19.429Z,58.23
2022-09-17T10:22:49.513Z,58.45
2022-09-17T10:25:22.249Z,58.27
2022-09-17T10:27:49.748Z,58.83
2022-09-17T10:30:18.889Z,59.38
2022-09-17T10:33:14.125Z,58.97
2022-09-17T10:35:40.580Z,59.01
2022-09-17T10:38:33.089Z,59.29
2022-09-17T10:41:22.500Z,59.32
2022-09-17T10:43:50.577Z,59.61
2022-09-17T10:46:35.306Z,59.83
2022-09-17T10:49:29.128Z,60.39
2022-09-17T10:52:27.010Z,59.71
2022-09-17T10:55:12.374Z,58.83
2022-09-17T10:58:05.875Z,59.00
2022-09-17T11:01:01.071Z,58.02
2022-09-17T11:03:51.390Z,57.85
2022-09-17T11:06:27.131Z,58.50
2022-09-17T11:09:27.996Z,59.50
2022-09-17T11:12:17.796Z,59.34
2022-09-17T11:15:01.484Z,58.27
2022-09-17T11:18:14.507Z,57.08
2022-09-17T11:21:30.632Z,56.45
2022-09-17T11:24:11.005Z,57.76
2022-09-17T11:27:08.728Z,57.21
2022-09-17T11:29:58.301Z,56.51
2022-09-17T11:32:57.015Z,55.62
2022-09-17T11:35:37.523Z,56.10
2022-09-17T11:38:27.487Z,55.43
2022-09-17T11:41:10.944Z,55.56
2022-09-17T11:43:48.457Z,54.73
2022-09-17T11:46:21.354Z,54.86
2022-09-17T11:49:13.641Z,55.42
2022-09-17T11:51:48.976Z,56.60
2022-09-17T11:54:25.323Z,56.75
2022-09-17T11:57:09.510Z,57.16
2022-09-17T11:59:56.399Z,56.21
2022-09-17T12:02:38.229Z,55.34
2022-09-17T12:05:15.100Z,54.96
2022-09-17T12:07:59.463Z,55.45
2022-09-17T12:10:41.662Z,54.63
2022-09-17T12:13:51.381Z,57.03
2022-09-17T12:16:50.611Z,58.48
2022-09-17T12:19:27.626Z,59.50
2022-09-17T12:22:01.972Z,60.90
2022-09-17T12:24:31.967Z,61.17
2022-09-17T12:27:52.878Z,61.17
2022-09-17T12:30:28.587Z,62.05
2022-09-17T12:33:34.720Z,61.66
2022-09-17T12:36:27.643Z,62.88
2022-09-17T12:39:25.044Z,62.15
2022-09-17T12:42:03.610Z,62.37
2022-09-17T12:45:03.864Z,61.86
2022-09-17T12:48:01.739Z,63.35
2022-09-17T12:50:59.053Z,64.11
2022-09-17T12:53:33.699Z,64.17
2022-09-17T12:56:29.622Z,63.57
2022-09-17T12:59:11.771Z,64.24
2022-09-17T13:02:00.377Z,65.97
2022-09-17T13:05:02.950Z,66.48
2022-09-17T13:08:16.284Z,66.01
2022-09-17T13:11:04.733Z,66.47
2022-09-17T13:13:58.854Z,66.65
2022-09-17T13:16:54.503Z,67.15
2022-09-17T13:19:39.765Z,66.59
2022-09-17T13:22:18.581Z,66.20
2022-09-17T13:24:48.932Z,66.51
2022-09-17T13:27:28.321Z,66.04
2022-09-17T13:29:54.657Z,65.77
2022-09-17T13:32:33.389Z,66.44
2022-09-17T13:35:11.567Z,66.18
2022-09-17T13:37:57.640Z,66.71
2022-09-17T13:40:37.356Z,67.06
2022-09-17T13:43:03.836Z,66.13
2022-09-17T13:45:33.721Z,66.47
2022-09-17T13:48:07.929Z,65.75
2022-09-17T13:50:40.460Z,66.12
2022-09-17T13:53:12.558Z,65.92
2022-09-17T13:55:54.647Z,66.26
2022-09-17T13:58:21.009Z,65.95
2022-09-17T14:01:11.603Z,66.58
2022-09-17T14:03:41.779Z,66.45
2022-09-17T14:06:08.514Z,67.26
2022-09-17T14:08:44.423Z,66.97
2022-09-17T14:11:23.334Z,67.63
2022-09-17T14:13:56.466Z,67.67
2022-09-17T14:16:29.214Z,67.69
2022-09-17T14:19:15.160Z,67.58
2022-09-17T14:22:02.657Z,66.67
2022-09-17T14:24:46.569Z,66.90
2022-09-17T14:27:46.024Z,67.05
2022-09-17T14:30:29.051Z,67.13
2022-09-17T14:33:01.440Z,66.80
2022-09-17T14:35:44.807Z,67.66
2022-09-17T14:38:16.881Z,66.89
2022-09-17T14:40:47.381Z,66.83
2022-09-17T14:43:38.557Z,66.62
2022-09-17T14:46:14.864Z,67.12
2022-09-17T14:48:41.407Z,67.13
2022-09-17T14:51:19.686Z,66.43
2022-09-17T14:53:49.403Z,66.63
2022-09-17T14:56:22.410Z,66.33
2022-09-17T14:58:53.217Z,66.13
2022-09-17T15:01:29.138Z,66.71
2022-09-17T15:04:25.592Z,65.20
2022-09-17T15:06:52.436Z,65.57
2022-09-17T15:09:27.750Z,64.58
2022-09-17T15:11:59.983Z,63.91
2022-09-17T15:14:36.628Z,64.17
2022-09-17T15:17:04.509Z,65.63
2022-09-17T15:19:40.237Z,65.13
2022-09-17T15:22:20.578Z,67.55
2022-09-17T15:25:01.970Z,69.37
2022-09-17T15:27:35.704Z,69.96
2022-09-17T15:30:16.019Z,70.09
2022-09-17T15:32:55.707Z,69.13
2022-09-17T15:35:30.049Z,68.86
2022-09-17T15:38:21.618Z,68.15
2022-09-17T15:40:47.735Z,68.46
2022-09-17T15:43:25.196Z,67.21
2022-09-17T15:45:51.669Z,68.11
2022-09-17T15:48:36.949Z,68.17
2022-09-17T15:51:07.035Z,68.39
2022-09-17T15:53:35.718Z,68.78
2022-09-17T15:56:13.055Z,67.65
2022-09-17T15:58:42.179Z,67.47
2022-09-17T16:01:11.894Z,67.15
2022-09-17T16:03:38.262Z,67.90
2022-09-17T16:06:27.557Z,68.08
2022-09-17T16:08:57.570Z,68.57
2022-09-17T16:11:32.126Z,68.88
2022-09-17T16:14:00.987Z,68.90
2022-09-17T16:16:38.150Z,69.02
2022-09-17T16:19:06.654Z,68.81
2022-09-17T16:21:33.334Z,68.48
2022-09-17T16:23:59.786Z,68.82
2022-09-17T16:26:31.339Z,68.50
2022-09-17T16:29:07.628Z,68.90
2022-09-17T16:31:34.570Z,68.63
2022-09-17T16:34:01.231Z,68.86
2022-09-17T16:36:30.899Z,69.48
2022-09-17T16:38:58.287Z,69.22
2022-09-17T16:41:24.744Z,69.01
2022-09-17T16:43:51.162Z,69.04
2022-09-17T16:46:17.638Z,69.01
2022-09-17T16:48:46.229Z,68.81
2022-09-17T16:51:14.123Z,69.20
2022-09-17T16:53:41.025Z,69.47
2022-09-17T16:56:14.263Z,70.13
2022-09-17T16:58:41.635Z,70.31
2022-09-17T17:01:10.785Z,70.34
2022-09-17T17:03:37.299Z,70.36
2022-09-17T17:06:04.354Z,70.72
2022-09-17T17:08:34.409Z,70.50
2022-09-17T17:11:01.507Z,71.13
2022-09-17T17:13:28.171Z,71.02
2022-09-17T17:15:55.225Z,70.92
2022-09-17T17:18:22.803Z,71.09
2022-09-17T17:20:49.340Z,70.75
2022-09-17T17:23:16.636Z,70.38
2022-09-17T17:25:43.141Z,70.55
2022-09-17T17:28:09.998Z,70.82
2022-09-17T17:30:37.466Z,70.98
2022-09-17T17:33:04.050Z,70.77
2022-09-17T17:35:30.687Z,70.45
2022-09-17T17:37:57.130Z,70.97
2022-09-17T17:40:23.976Z,70.87
2022-09-17T17:42:54.207Z,70.06
2022-09-17T17:45:20.719Z,69.53
2022-09-17T17:47:47.509Z,69.39
2022-09-17T17:50:15.702Z,70.11
2022-09-17T17:52:47.607Z,69.89
2022-09-17T17:55:16.226Z,69.79
2022-09-17T17:57:42.698Z,68.79
2022-09-17T18:00:11.776Z,68.42
2022-09-17T18:02:38.441Z,68.48
2022-09-17T18:05:05.455Z,67.81
2022-09-17T18:07:32.025Z,68.11
2022-09-17T18:09:58.553Z,68.15
2022-09-17T18:12:26.966Z,68.09
2022-09-17T18:14:53.838Z,68.39
2022-09-17T18:17:20.656Z,68.27
2022-09-17T18:19:47.091Z,68.43
2022-09-17T18:22:14.090Z,68.72
2022-09-17T18:24:40.536Z,68.80
2022-09-17T18:27:07.080Z,68.69
2022-09-17T18:29:33.535Z,69.01
2022-09-17T18:32:00.162Z,68.62
2022-09-17T18:34:26.706Z,69.07
2022-09-17T18:36:53.203Z,68.48
2022-09-17T18:39:57.073Z,68.81
2022-09-17T18:42:08.730Z,68.93
2022-09-17T18:44:35.171Z,69.30
2022-09-17T18:47:01.954Z,69.07
2022-09-17T18:49:28.660Z,69.21
2022-09-17T18:51:55.396Z,69.49
2022-09-17T18:54:21.862Z,69.04
2022-09-17T18:56:48.444Z,69.09
2022-09-17T18:59:14.920Z,69.09
2022-09-17T19:01:41.438Z,69.08
2022-09-17T19:04:08.304Z,69.54
2022-09-17T19:06:35.843Z,69.68
2022-09-17T19:09:04.594Z,69.89
2022-09-17T19:11:31.118Z,69.86
2022-09-17T19:13:58.074Z,69.85
2022-09-17T19:16:24.935Z,69.87
2022-09-17T19:18:51.650Z,69.57
2022-09-17T19:21:23.380Z,69.58
2022-09-17T19:23:52.422Z,69.19
2022-09-17T19:26:22.443Z,69.37
2022-09-17T19:28:53.663Z,69.44
2022-09-17T19:31:20.916Z,69.64
2022-09-17T19:33:47.661Z,69.88
2022-09-17T19:36:17.455Z,69.96
2022-09-17T19:38:45.306Z,70.37
2022-09-17T19:41:19.329Z,70.30
2022-09-17T19:43:47.025Z,70.59
2022-09-17T19:46:18.006Z,70.67
2022-09-17T19:48:51.543Z,70.77
2022-09-17T19:51:19.756Z,70.85
2022-09-17T19:53:46.569Z,70.82
2022-09-17T19:56:17.647Z,70.40
2022-09-17T19:58:44.495Z,70.28
2022-09-17T20:01:12.234Z,70.31
2022-09-17T20:03:40.942Z,70.72
2022-09-17T20:06:11.461Z,70.99
2022-09-17T20:08:47.024Z,70.72
2022-09-17T20:11:16.300Z,70.57
2022-09-17T20:13:43.317Z,70.37
2022-09-17T20:16:12.446Z,70.22
2022-09-17T20:18:39.606Z,70.42
2022-09-17T20:21:11.667Z,70.22
2022-09-17T20:23:38.917Z,70.43
2022-09-17T20:26:06.383Z,70.65
2022-09-17T20:28:34.024Z,70.84
2022-09-17T20:31:12.531Z,70.87
2022-09-17T20:33:39.482Z,71.02
2022-09-17T20:36:11.800Z,70.56
2022-09-17T20:41:27.327Z,71.00
2022-09-17T20:43:54.599Z,70.89
2022-09-17T20:46:28.642Z,71.16
2022-09-17T20:48:58.021Z,70.90
2022-09-17T20:51:29.003Z,70.74
2022-09-17T20:53:57.199Z,70.66
2022-09-17T20:56:27.973Z,70.83
2022-09-17T20:59:04.080Z,71.20
2022-09-17T21:01:34.284Z,71.12
2022-09-17T21:04:02.139Z,71.11
2022-09-17T21:06:32.131Z,71.54
2022-09-17T21:09:00.031Z,71.17
2022-09-17T21:11:27.820Z,71.17
2022-09-17T21:13:54.307Z,70.73
2022-09-17T21:16:21.068Z,70.91
2022-09-17T21:18:47.975Z,70.69
2022-09-17T21:21:17.889Z,70.58
2022-09-17T21:23:44.851Z,70.77
2022-09-17T21:26:18.136Z,70.89
2022-09-17T21:28:48.134Z,70.89
2022-09-17T21:31:21.196Z,70.62
2022-09-17T21:33:53.062Z,70.80
2022-09-17T21:36:22.414Z,71.14
2022-09-17T21:38:57.678Z,71.26
2022-09-17T21:41:25.847Z,70.84
2022-09-17T21:43:53.365Z,71.07
2022-09-17T21:46:28.408Z,71.00
2022-09-17T21:49:02.285Z,71.27
2022-09-17T21:51:36.315Z,71.57
2022-09-17T21:54:08.229Z,71.76
2022-09-17T21:56:35.237Z,71.49
2022-09-17T21:59:05.960Z,71.41
2022-09-17T22:01:42.244Z,71.62
2022-09-17T22:04:12.943Z,71.56
2022-09-17T22:06:40.999Z,71.82
2022-09-17T22:09:14.431Z,71.99
2022-09-17T22:11:41.035Z,72.16
2022-09-17T22:14:14.579Z,72.45
2022-09-17T22:16:44.683Z,72.58
2022-09-17T22:19:14.770Z,72.07
2022-09-17T22:21:46.458Z,72.20
2022-09-17T22:24:15.510Z,71.99
2022-09-17T22:26:46.803Z,71.67
2022-09-17T22:29:20.378Z,72.60
2022-09-17T22:31:48.143Z,72.35
2022-09-17T22:34:19.713Z,72.23
2022-09-17T22:36:46.579Z,72.19
2022-09-17T22:39:13.145Z,72.16
2022-09-17T22:41:45.564Z,72.32
2022-09-17T22:44:17.675Z,72.70
2022-09-17T22:46:46.832Z,72.62
2022-09-17T22:49:14.087Z,72.62
2022-09-17T22:51:41.754Z,72.43
2022-09-17T22:54:12.192Z,72.06
2022-09-17T22:56:39.884Z,72.21
2022-09-17T22:59:07.281Z,71.75
2022-09-17T23:01:36.228Z,71.79
2022-09-17T23:04:04.288Z,71.81
2022-09-17T23:06:34.991Z,72.01
2022-09-17T23:09:01.919Z,72.33
2022-09-17T23:11:32.501Z,72.64
2022-09-17T23:14:02.793Z,72.63
2022-09-17T23:16:35.465Z,72.47
2022-09-17T23:19:01.942Z,71.95
2022-09-17T23:21:28.418Z,72.09
2022-09-17T23:23:54.886Z,72.34
2022-09-17T23:26:25.307Z,72.44
2022-09-17T23:28:53.056Z,72.20
2022-09-17T23:31:23.739Z,71.93
2022-09-17T23:33:51.911Z,72.39
2022-09-17T23:36:23.393Z,72.28
2022-09-17T23:38:51.119Z,72.58
2022-09-17T23:41:20.816Z,72.88
2022-09-17T23:43:53.791Z,72.52
2022-09-17T23:46:22.717Z,72.10
2022-09-17T23:48:51.124Z,72.34
2022-09-17T23:51:17.915Z,72.54
2022-09-17T23:53:44.638Z,72.40
2022-09-17T23:56:21.911Z,72.16
2022-09-17T23:58:49.993Z,72.24
